Time;durP1;ratioP1;P1;durP2;ratioP2;P2;SDS_P1;SDS_P2;PMS_P1;PMS_P2;Temp;Humidity;BMP_temperature;BMP_pressure;BME280_temperature;BME280_humidity;BME280_pressure;Samples;Min_cycle;Max_cycle;Signal;HPM_P1;HPM_P2
2021/07/30 00:02:28;;;;;;;5.25;3.20;;;;;;;17.08;69.50;99911.78;5057492;28;20048;-78
2021/07/30 00:05:14;;;;;;;5.80;3.28;;;;;;;17.05;69.51;99902.09;5094151;28;20061;-78
2021/07/30 00:08:00;;;;;;;4.95;2.88;;;;;;;17.05;69.94;99901.25;5090691;28;20035;-78
2021/07/30 00:10:46;;;;;;;5.68;3.20;;;;;;;17.03;69.99;99907.22;5081315;28;20032;-78
2021/07/30 00:13:32;;;;;;;6.60;3.05;;;;;;;17.00;69.81;99896.72;5084031;28;20032;-78
2021/07/30 00:16:18;;;;;;;4.78;3.08;;;;;;;17.02;71.65;99905.59;5093982;28;20399;-78
2021/07/30 00:19:03;;;;;;;5.85;3.15;;;;;;;17.00;70.72;99905.13;5081345;28;20039;-78
2021/07/30 00:21:49;;;;;;;5.53;3.40;;;;;;;17.00;71.78;99890.28;5097159;28;20040;-78
2021/07/30 00:24:35;;;;;;;4.18;3.28;;;;;;;17.00;71.30;99899.50;5080465;28;20038;-78
2021/07/30 00:27:21;;;;;;;3.97;3.03;;;;;;;17.01;71.77;99889.91;5074218;27;20098;-78
2021/07/30 00:30:07;;;;;;;6.00;3.35;;;;;;;17.04;70.98;99883.59;5089242;28;20041;-79
2021/07/30 00:32:53;;;;;;;7.60;3.42;;;;;;;17.07;70.97;99890.50;5074399;27;20043;-78
2021/07/30 00:35:39;;;;;;;5.28;3.05;;;;;;;17.09;71.18;99883.38;5093372;28;20412;-78
2021/07/30 00:38:25;;;;;;;4.25;2.90;;;;;;;17.09;70.17;99886.16;5072574;28;20176;-78
2021/07/30 00:41:10;;;;;;;5.03;3.30;;;;;;;17.10;71.78;99884.19;5077181;28;20071;-78
2021/07/30 00:43:56;;;;;;;5.03;2.60;;;;;;;17.13;70.69;99875.06;5088170;28;20035;-78
2021/07/30 00:46:42;;;;;;;5.95;3.20;;;;;;;17.16;70.82;99865.91;5064062;27;20134;-78
2021/07/30 00:49:28;;;;;;;7.18;3.05;;;;;;;17.17;70.66;99871.19;5074410;28;20061;-78
2021/07/30 00:52:13;;;;;;;5.78;3.20;;;;;;;17.16;71.02;99865.91;5072078;28;20459;-79
2021/07/30 00:54:59;;;;;;;5.88;3.30;;;;;;;17.19;71.62;99862.44;5058967;28;20436;-78
2021/07/30 00:57:45;;;;;;;5.72;3.42;;;;;;;17.17;71.77;99861.97;5058717;28;20032;-78
2021/07/30 01:00:31;;;;;;;6.82;2.70;;;;;;;17.20;72.08;99855.63;5051091;28;20498;-78
2021/07/30 01:03:16;;;;;;;7.75;3.53;;;;;;;17.21;70.49;99854.47;5047932;28;20084;-78
2021/07/30 01:06:02;;;;;;;5.55;3.30;;;;;;;17.23;72.03;99856.91;5078818;28;20036;-77
2021/07/30 01:08:48;;;;;;;7.20;3.40;;;;;;;17.22;71.05;99850.50;5067715;28;20043;-77
2021/07/30 01:11:34;;;;;;;6.20;3.20;;;;;;;17.27;71.52;99847.41;5065106;28;20039;-77
2021/07/30 01:14:20;;;;;;;4.47;2.97;;;;;;;17.26;71.27;99859.00;5042749;28;20114;-77
2021/07/30 01:17:06;;;;;;;6.15;3.20;;;;;;;17.27;71.87;99860.63;5051682;28;20036;-77
2021/07/30 01:19:55;;;;;;;4.47;2.85;;;;;;;17.28;72.12;99853.88;5066737;28;20054;-77
2021/07/30 01:22:54;;;;;;;7.22;3.20;;;;;;;17.28;72.28;99846.25;5072009;28;20098;-77
2021/07/30 01:25:39;;;;;;;6.95;3.55;;;;;;;17.29;72.45;99847.06;5046881;28;20458;-78
2021/07/30 01:28:30;;;;;;;4.55;3.05;;;;;;;17.24;72.84;99838.91;5060743;28;20033;-78
2021/07/30 01:31:16;;;;;;;7.43;3.30;;;;;;;17.24;72.68;99827.69;5057307;28;20044;-77
2021/07/30 01:34:01;;;;;;;6.35;3.45;;;;;;;17.26;72.00;99828.97;5039166;28;20122;-78
2021/07/30 01:36:47;;;;;;;5.13;3.65;;;;;;;17.23;72.73;99818.44;5039061;28;20053;-78
2021/07/30 01:39:34;;;;;;;6.32;3.50;;;;;;;17.25;72.29;99818.09;5049879;28;20041;-78
2021/07/30 01:42:19;;;;;;;8.35;3.15;;;;;;;17.26;71.72;99826.16;5088325;28;20122;-78
2021/07/30 01:45:06;;;;;;;4.85;3.13;;;;;;;17.25;71.46;99829.34;5061519;28;20781;-78
2021/07/30 01:47:52;;;;;;;6.03;3.33;;;;;;;17.24;71.70;99819.25;5054395;28;20127;-78
2021/07/30 01:50:37;;;;;;;9.45;3.28;;;;;;;17.27;71.73;99818.53;5072340;28;20192;-77
2021/07/30 01:53:23;;;;;;;7.20;3.42;;;;;;;17.26;73.23;99811.31;5053340;28;20176;-78
2021/07/30 01:56:09;;;;;;;6.28;3.47;;;;;;;17.23;72.42;99810.03;5069325;28;20031;-78
2021/07/30 01:58:55;;;;;;;5.95;3.17;;;;;;;17.27;72.21;99807.31;5067334;28;20060;-78
2021/07/30 02:01:41;;;;;;;7.57;3.78;;;;;;;17.27;73.41;99810.13;5080915;28;20028;-78
2021/07/30 02:04:27;;;;;;;7.35;3.40;;;;;;;17.29;73.82;99807.78;5066803;28;20506;-78
2021/07/30 02:07:12;;;;;;;6.28;3.30;;;;;;;17.28;73.16;99812.59;5073533;28;20478;-77
2021/07/30 02:09:58;;;;;;;6.75;3.50;;;;;;;17.25;74.05;99799.28;5098710;28;20074;-78
2021/07/30 02:15:49;;;;;;;8.00;3.30;;;;;;;17.29;73.40;99799.38;5078018;28;20040;-78
2021/07/30 02:18:34;;;;;;;5.75;3.25;;;;;;;17.31;73.40;99799.84;5085302;28;20119;-77
2021/07/30 02:21:20;;;;;;;6.68;3.47;;;;;;;17.34;73.37;99807.53;5068839;28;20032;-77
2021/07/30 02:24:06;;;;;;;6.28;3.80;;;;;;;17.29;74.77;99796.56;5065888;28;20035;-78
2021/07/30 02:26:53;;;;;;;5.53;3.25;;;;;;;17.33;73.41;99787.09;5068306;28;20032;-78
2021/07/30 02:29:39;;;;;;;6.75;3.20;;;;;;;17.30;74.35;99793.41;5081506;28;20227;-78
2021/07/30 02:32:25;;;;;;;5.53;3.65;;;;;;;17.32;73.86;99787.44;5082189;28;20032;-77
2021/07/30 02:35:11;;;;;;;6.85;3.40;;;;;;;17.30;73.57;99782.19;5056881;28;20036;-78
2021/07/30 02:37:56;;;;;;;7.38;3.70;;;;;;;17.32;74.30;99779.00;5084620;28;20070;-78
2021/07/30 02:40:42;;;;;;;8.00;3.20;;;;;;;17.34;73.81;99771.06;5093415;28;20059;-78
2021/07/30 02:43:28;;;;;;;6.43;3.58;;;;;;;17.32;73.58;99767.78;5069158;28;20031;-78
2021/07/30 02:46:16;;;;;;;7.05;3.40;;;;;;;17.34;74.56;99759.84;5087040;28;20046;-78
2021/07/30 02:49:02;;;;;;;5.00;3.42;;;;;;;17.32;74.70;99768.59;5093204;28;20042;-78
2021/07/30 02:51:47;;;;;;;5.32;3.65;;;;;;;17.32;74.65;99762.16;5080535;28;20114;-78
2021/07/30 02:54:33;;;;;;;6.80;3.50;;;;;;;17.35;75.05;99767.06;5084997;27;20043;-77
2021/07/30 02:57:19;;;;;;;6.45;3.40;;;;;;;17.37;74.85;99764.72;5097390;28;20043;-77
2021/07/30 03:00:05;;;;;;;5.07;3.35;;;;;;;17.34;74.12;99765.44;5069909;28;20039;-77
2021/07/30 03:02:51;;;;;;;5.28;3.50;;;;;;;17.33;74.92;99761.81;5067101;28;20365;-77
2021/07/30 03:05:37;;;;;;;6.53;3.33;;;;;;;17.33;74.84;99752.59;5081140;28;20105;-78
2021/07/30 03:08:24;;;;;;;6.40;3.38;;;;;;;17.36;75.83;99754.69;5080460;28;20325;-77
2021/07/30 03:11:10;;;;;;;7.45;3.15;;;;;;;17.33;75.07;99752.59;5080421;28;20027;-77
2021/07/30 03:13:56;;;;;;;6.28;3.58;;;;;;;17.35;75.63;99750.22;5065499;28;20048;-77
2021/07/30 03:16:42;;;;;;;6.13;3.10;;;;;;;17.34;74.93;99748.59;5083999;28;20088;-77
2021/07/30 03:19:27;;;;;;;8.63;3.58;;;;;;;17.37;76.24;99753.50;5081601;28;20576;-77
2021/07/30 03:22:13;;;;;;;7.28;3.67;;;;;;;17.33;75.79;99750.59;5082845;28;20038;-77
2021/07/30 03:24:59;;;;;;;5.05;3.20;;;;;;;17.31;76.70;99749.31;5085934;28;20055;-78
2021/07/30 03:27:45;;;;;;;6.82;3.33;;;;;;;17.33;75.86;99752.59;5081322;28;20024;-78
2021/07/30 03:30:32;;;;;;;6.47;3.53;;;;;;;17.27;76.99;99749.19;5081487;28;20692;-77
2021/07/30 03:33:17;;;;;;;4.70;3.00;;;;;;;17.26;76.01;99741.97;5084786;28;20079;-78
2021/07/30 03:36:04;;;;;;;7.32;3.28;;;;;;;17.26;78.00;99741.16;5084282;28;20541;-78
2021/07/30 03:38:49;;;;;;;5.07;3.50;;;;;;;17.23;77.53;99739.88;5090229;28;20054;-78
2021/07/30 03:41:36;;;;;;;5.05;3.22;;;;;;;17.24;77.74;99743.50;5076316;28;20059;-78
2021/07/30 03:44:22;;;;;;;4.78;3.63;;;;;;;17.20;78.05;99737.78;5085427;28;20403;-78
2021/07/30 03:47:07;;;;;;;7.50;2.97;;;;;;;17.19;76.25;99742.59;5085948;28;20144;-77
2021/07/30 03:49:53;;;;;;;5.25;3.67;;;;;;;17.19;76.90;99738.97;5069533;28;20321;-77
2021/07/30 03:52:39;;;;;;;4.10;3.00;;;;;;;17.18;76.41;99746.56;5058683;27;20052;-78
2021/07/30 03:55:25;;;;;;;5.82;3.17;;;;;;;17.18;78.27;99740.13;5083682;28;20047;-77
2021/07/30 03:58:11;;;;;;;3.90;3.00;;;;;;;17.13;78.69;99744.03;5084891;28;20043;-78
2021/07/30 04:00:56;;;;;;;4.43;3.20;;;;;;;17.14;78.56;99740.03;5083994;27;20101;-77
2021/07/30 04:03:45;;;;;;;4.50;3.00;;;;;;;17.14;78.00;99739.22;5084474;28;20043;-78
2021/07/30 04:06:31;;;;;;;5.50;2.80;;;;;;;17.15;78.97;99743.66;5087061;28;20028;-78
2021/07/30 04:09:17;;;;;;;5.47;2.90;;;;;;;17.14;77.90;99745.66;5069828;28;20036;-77
2021/07/30 04:12:03;;;;;;;5.40;3.15;;;;;;;17.10;79.55;99755.94;5083848;28;20093;-77
2021/07/30 04:14:48;;;;;;;3.97;2.80;;;;;;;17.13;78.14;99763.66;5074204;28;20039;-77
2021/07/30 04:17:34;;;;;;;5.15;2.53;;;;;;;17.11;79.51;99768.81;5098261;28;20028;-77
2021/07/30 04:20:20;;;;;;;3.33;2.40;;;;;;;17.11;77.54;99780.03;5082393;28;20040;-77
2021/07/30 04:23:06;;;;;;;3.25;2.40;;;;;;;17.12;78.05;99787.25;5085913;28;20059;-77
2021/07/30 04:25:52;;;;;;;3.22;2.10;;;;;;;17.12;80.45;99792.06;5082777;28;20039;-78
2021/07/30 04:28:37;;;;;;;6.38;2.58;;;;;;;17.08;79.30;99806.00;5071327;28;20572;-78
2021/07/30 04:31:23;;;;;;;4.40;2.00;;;;;;;17.08;78.30;99816.41;5088656;28;20038;-78
2021/07/30 04:34:09;;;;;;;7.57;2.50;;;;;;;17.05;78.03;99823.53;5080167;28;20695;-78
2021/07/30 04:36:55;;;;;;;4.07;2.00;;;;;;;17.03;77.81;99823.06;5073303;27;20030;-78
2021/07/30 04:39:40;;;;;;;3.83;1.88;;;;;;;17.03;77.78;99827.88;5098522;28;20039;-78
2021/07/30 04:42:27;;;;;;;9.95;2.20;;;;;;;16.94;78.49;99828.00;5078806;28;20111;-78
2021/07/30 04:45:13;;;;;;;8.45;2.00;;;;;;;16.96;77.15;99829.25;5073367;28;20114;-78
2021/07/30 04:47:58;;;;;;;10.10;2.15;;;;;;;16.94;76.91;99831.63;5082687;28;20060;-78
2021/07/30 04:50:44;;;;;;;5.43;2.03;;;;;;;16.94;76.47;99839.22;5086288;28;20063;-78
2021/07/30 04:53:30;;;;;;;8.60;1.80;;;;;;;16.92;76.25;99835.94;5058107;28;20135;-78
2021/07/30 04:56:17;;;;;;;8.32;1.92;;;;;;;16.91;76.34;99845.50;5056328;28;20036;-77
2021/07/30 04:59:04;;;;;;;7.78;2.00;;;;;;;16.82;75.78;99842.84;5058788;28;20082;-78
2021/07/30 05:01:49;;;;;;;9.40;2.00;;;;;;;16.81;75.86;99846.00;5066766;28;20342;-78
2021/07/30 05:04:36;;;;;;;9.45;2.00;;;;;;;16.77;75.62;99842.25;5075106;28;20042;-77
2021/07/30 05:07:25;;;;;;;7.25;2.10;;;;;;;16.73;75.39;99844.94;5049008;28;20040;-77
2021/07/30 05:10:10;;;;;;;5.93;1.58;;;;;;;16.67;75.25;99854.75;5066543;28;20050;-77
2021/07/30 05:12:56;;;;;;;7.25;2.05;;;;;;;16.62;75.35;99855.78;5047941;28;20028;-77
2021/07/30 05:15:42;;;;;;;7.47;1.60;;;;;;;16.55;74.92;99861.19;5046765;28;20373;-77
2021/07/30 05:18:28;;;;;;;5.60;1.58;;;;;;;16.48;74.88;99866.53;5052536;28;20032;-77
2021/07/30 05:21:14;;;;;;;9.48;1.70;;;;;;;16.39;74.94;99869.47;5092872;28;20067;-78
2021/07/30 05:23:59;;;;;;;6.22;1.77;;;;;;;16.35;74.99;99882.50;5050168;28;20524;-68
2021/07/30 05:26:45;;;;;;;8.10;1.80;;;;;;;16.30;75.05;99877.97;5071848;28;20029;-68
2021/07/30 05:29:31;;;;;;;7.18;2.40;;;;;;;16.22;74.79;99881.69;5078907;28;20528;-68
2021/07/30 05:32:17;;;;;;;7.22;1.73;;;;;;;16.20;75.13;99888.81;5062065;28;20035;-68
2021/07/30 05:35:03;;;;;;;12.57;2.33;;;;;;;16.18;76.04;99891.94;5039355;28;20058;-68
2021/07/30 05:37:49;;;;;;;9.68;2.22;;;;;;;16.18;76.78;99897.53;5066844;28;20035;-68
2021/07/30 05:40:34;;;;;;;8.50;2.00;;;;;;;16.21;76.63;99893.22;5051766;28;20059;-69
2021/07/30 05:43:20;;;;;;;9.93;2.15;;;;;;;16.26;77.82;99901.41;5076223;28;20558;-69
2021/07/30 05:46:07;;;;;;;9.82;2.58;;;;;;;16.33;77.88;99907.28;5052654;28;20089;-69
2021/07/30 05:48:56;;;;;;;11.10;2.13;;;;;;;16.41;78.90;99897.97;5057100;28;20488;-69
2021/07/30 05:51:42;;;;;;;12.27;2.20;;;;;;;16.53;77.58;99900.75;5062252;28;20036;-69
2021/07/30 05:54:28;;;;;;;11.73;2.33;;;;;;;16.67;76.92;99894.00;5089675;27;20559;-69
2021/07/30 05:57:14;;;;;;;9.18;1.73;;;;;;;16.80;77.45;99895.69;5118923;27;20035;-69
2021/07/30 06:00:04;;;;;;;9.68;2.30;;;;;;;16.95;75.57;99894.13;5113594;27;20631;-77
2021/07/30 06:02:50;;;;;;;12.68;2.28;;;;;;;17.07;76.13;99891.31;5117255;27;20072;-67
2021/07/30 06:05:36;;;;;;;13.00;2.60;;;;;;;17.25;74.87;99891.06;5135006;27;20487;-67
2021/07/30 06:08:22;;;;;;;13.88;2.40;;;;;;;17.40;73.91;99887.50;5124598;27;20043;-67
2021/07/30 06:11:07;;;;;;;12.02;2.45;;;;;;;17.56;73.36;99882.78;5099351;27;20034;-67
2021/07/30 06:13:53;;;;;;;8.63;2.35;;;;;;;17.74;72.92;99891.69;5106142;27;20122;-67
2021/07/30 06:16:39;;;;;;;12.02;2.40;;;;;;;17.92;72.79;99892.25;5094853;28;20147;-67
2021/07/30 06:19:25;;;;;;;11.80;2.78;;;;;;;18.09;72.93;99891.13;5101945;27;20035;-69
2021/07/30 06:22:10;;;;;;;8.05;2.13;;;;;;;18.29;71.54;99894.84;5116594;27;20035;-69
2021/07/30 06:24:56;;;;;;;10.18;2.00;;;;;;;18.49;71.48;99899.38;5104084;27;20114;-68
2021/07/30 06:27:42;;;;;;;12.10;2.30;;;;;;;18.70;70.57;99887.88;5098920;28;20036;-68
2021/07/30 06:30:28;;;;;;;8.10;2.17;;;;;;;18.94;70.03;99892.53;5114993;27;20043;-69
2021/07/30 06:33:14;;;;;;;15.43;2.75;;;;;;;19.19;69.87;99897.88;5103820;27;20455;-69
2021/07/30 06:35:59;;;;;;;10.15;2.00;;;;;;;19.42;69.22;99900.84;5099904;28;20023;-69
2021/07/30 06:38:45;;;;;;;11.15;2.60;;;;;;;19.70;68.87;99897.84;5084570;27;20027;-69
2021/07/30 06:41:31;;;;;;;13.93;2.40;;;;;;;19.91;68.47;99902.28;5110749;27;20118;-69
2021/07/30 06:44:17;;;;;;;9.60;2.33;;;;;;;20.16;67.95;99908.41;5117908;27;20064;-68
2021/07/30 06:47:03;;;;;;;13.70;2.78;;;;;;;20.28;67.52;99917.53;5101654;27;20064;-68
2021/07/30 06:49:49;;;;;;;15.23;2.78;;;;;;;20.43;67.14;99909.31;5130108;27;20110;-68
2021/07/30 06:52:35;;;;;;;14.38;2.60;;;;;;;20.59;67.01;99917.66;5102400;27;20039;-69
2021/07/30 06:55:21;;;;;;;15.43;2.58;;;;;;;20.67;66.66;99919.41;5118855;27;20038;-69
2021/07/30 06:58:07;;;;;;;12.45;2.50;;;;;;;20.86;66.30;99921.34;5097327;27;20035;-69
2021/07/30 07:00:52;;;;;;;13.70;2.75;;;;;;;20.92;65.74;99925.47;5102301;27;20525;-69
2021/07/30 07:03:38;;;;;;;8.38;2.28;;;;;;;21.00;65.38;99920.78;5104667;27;20027;-69
2021/07/30 07:06:24;;;;;;;10.57;2.38;;;;;;;20.96;65.11;99926.38;5104705;27;20453;-69
2021/07/30 07:09:10;;;;;;;11.82;2.45;;;;;;;21.03;65.03;99920.81;5090679;27;20049;-68
2021/07/30 07:11:55;;;;;;;14.02;2.55;;;;;;;21.00;65.22;99932.88;5100109;27;20031;-68
2021/07/30 07:14:41;;;;;;;13.70;2.63;;;;;;;20.92;65.18;99922.66;5115283;27;20035;-69
2021/07/30 07:17:27;;;;;;;10.75;2.00;;;;;;;21.03;64.76;99926.47;5089092;27;20035;-69
2021/07/30 07:20:13;;;;;;;10.00;2.67;;;;;;;20.94;64.62;99940.03;5077371;27;20035;-69
2021/07/30 07:22:59;;;;;;;10.35;2.20;;;;;;;21.00;64.28;99951.81;5118993;28;20077;-69
2021/07/30 07:25:44;;;;;;;11.90;2.40;;;;;;;21.00;64.29;99951.81;5099908;28;20084;-69
2021/07/30 07:28:30;;;;;;;9.30;2.10;;;;;;;20.98;63.93;99943.75;5100131;27;20063;-68
2021/07/30 07:31:16;;;;;;;9.73;2.03;;;;;;;20.93;64.22;99944.88;5104427;27;20031;-69
2021/07/30 07:34:02;;;;;;;14.48;2.60;;;;;;;20.90;65.06;99944.81;5100216;28;20068;-69
2021/07/30 07:36:47;;;;;;;10.65;2.40;;;;;;;20.93;64.73;99935.59;5100066;27;20019;-69
2021/07/30 07:39:33;;;;;;;11.20;2.60;;;;;;;21.04;64.48;99947.06;5077345;27;20028;-68
2021/07/30 07:42:19;;;;;;;12.32;2.67;;;;;;;21.19;64.42;99952.53;5102430;28;20088;-69
2021/07/30 07:45:05;;;;;;;10.70;2.33;;;;;;;21.34;64.06;99942.31;5106462;27;20115;-69
2021/07/30 07:47:51;;;;;;;12.10;2.15;;;;;;;21.43;64.26;99939.22;5119627;27;20087;-69
2021/07/30 07:50:37;;;;;;;12.75;2.50;;;;;;;21.61;63.26;99947.94;5088654;28;20039;-69
2021/07/30 07:53:23;;;;;;;14.57;2.38;;;;;;;21.76;62.95;99943.31;5121388;27;20146;-69
2021/07/30 07:56:09;;;;;;;11.90;2.75;;;;;;;21.98;61.86;99942.38;5105224;27;20557;-69
2021/07/30 07:58:55;;;;;;;12.30;2.30;;;;;;;22.05;61.50;99952.94;5078364;27;20036;-69
2021/07/30 08:01:41;;;;;;;11.40;2.70;;;;;;;22.23;61.54;99939.03;5120140;27;20050;-68
2021/07/30 08:04:27;;;;;;;9.15;2.70;;;;;;;22.48;61.16;99945.81;5093227;27;20096;-69
2021/07/30 08:07:17;;;;;;;13.73;2.25;;;;;;;22.58;60.44;99946.28;5120713;27;20482;-69
2021/07/30 08:10:03;;;;;;;9.45;2.47;;;;;;;22.73;60.20;99937.56;5134468;27;20031;-69
2021/07/30 08:12:49;;;;;;;9.40;2.17;;;;;;;22.86;60.21;99946.53;5118557;27;20050;-69
2021/07/30 08:15:35;;;;;;;9.88;2.17;;;;;;;22.94;59.41;99936.09;5119750;27;20081;-68
2021/07/30 08:18:22;;;;;;;12.57;2.50;;;;;;;23.11;58.70;99938.28;5121403;27;20038;-70
2021/07/30 08:21:08;;;;;;;10.85;2.22;;;;;;;23.19;57.96;99933.50;5099518;27;20042;-78
2021/07/30 08:23:54;;;;;;;11.13;2.30;;;;;;;23.47;58.04;99934.88;5101156;27;20042;-78
2021/07/30 08:26:40;;;;;;;9.18;1.92;;;;;;;23.62;58.32;99926.06;5116479;27;20031;-78
2021/07/30 08:29:25;;;;;;;11.68;2.40;;;;;;;23.74;57.65;99936.28;5109123;27;20027;-78
2021/07/30 08:32:11;;;;;;;12.60;1.90;;;;;;;23.84;57.00;99929.81;5105168;27;20068;-78
2021/07/30 08:34:57;;;;;;;8.50;1.83;;;;;;;24.01;56.70;99924.63;5092291;27;20031;-77
2021/07/30 08:37:43;;;;;;;7.18;1.88;;;;;;;24.16;56.86;99949.00;5082055;27;20028;-78
2021/07/30 08:40:33;;;;;;;10.02;2.28;;;;;;;24.23;56.15;99934.81;5119247;27;20035;-78
2021/07/30 08:43:18;;;;;;;9.85;1.98;;;;;;;24.39;55.47;99948.66;5116114;27;20114;-78
2021/07/30 08:46:04;;;;;;;10.30;2.25;;;;;;;24.43;55.55;99957.19;5103514;27;20118;-78
2021/07/30 08:48:50;;;;;;;9.45;2.33;;;;;;;24.59;55.50;99951.97;5088939;28;20046;-78
2021/07/30 08:51:36;;;;;;;8.50;1.73;;;;;;;24.67;55.32;99955.63;5092285;27;20065;-78
2021/07/30 08:54:22;;;;;;;7.95;1.58;;;;;;;24.82;55.29;99962.94;5094180;28;20060;-78
2021/07/30 08:57:08;;;;;;;12.02;2.20;;;;;;;24.88;54.51;99960.53;5084680;28;20038;-78
2021/07/30 09:00:03;;;;;;;12.32;2.05;;;;;;;24.84;53.13;99969.03;5110555;28;20389;-78
2021/07/30 09:02:49;;;;;;;16.55;4.68;;;;;;;24.82;52.85;99968.63;5083892;28;20553;-78
2021/07/30 09:05:35;;;;;;;11.02;2.10;;;;;;;24.86;53.48;99972.28;5091112;28;20045;-78
2021/07/30 09:08:24;;;;;;;11.07;2.35;;;;;;;25.00;53.53;99968.66;5100641;28;20044;-78
2021/07/30 09:11:13;;;;;;;11.23;1.98;;;;;;;25.01;53.54;99966.63;5096616;28;20040;-78
2021/07/30 09:14:02;;;;;;;12.13;2.35;;;;;;;25.08;53.76;99964.59;5084974;28;20106;-78
2021/07/30 09:16:52;;;;;;;10.15;2.50;;;;;;;25.22;53.32;99960.97;5088589;28;20051;-78
2021/07/30 09:19:57;;;;;;;6.78;1.70;;;;;;;25.15;52.07;99969.47;5085483;28;20035;-78
2021/07/30 09:22:48;;;;;;;9.73;2.10;;;;;;;25.40;52.79;99975.13;5097979;27;20028;-78
2021/07/30 09:25:35;;;;;;;6.97;2.30;;;;;;;25.44;52.10;99975.97;5098481;28;20028;-78
2021/07/30 09:28:20;;;;;;;9.32;2.15;;;;;;;25.63;52.42;99981.22;5068115;28;20036;-77
2021/07/30 09:31:06;;;;;;;10.38;1.80;;;;;;;25.80;52.06;99971.00;5078444;28;20040;-77
2021/07/30 09:33:53;;;;;;;8.73;1.75;;;;;;;26.03;51.92;99975.41;5089362;28;20031;-77
2021/07/30 09:36:47;;;;;;;8.20;2.22;;;;;;;26.15;49.88;99977.00;5065738;28;20031;-77
2021/07/30 09:39:32;;;;;;;7.57;1.75;;;;;;;26.34;50.35;99970.81;5082200;28;20118;-77
2021/07/30 09:42:33;;;;;;;7.30;1.70;;;;;;;26.47;49.54;99971.94;5114368;27;20039;-77
2021/07/30 09:45:18;;;;;;;6.53;1.88;;;;;;;26.48;48.82;99965.03;5088812;28;20032;-77
2021/07/30 09:48:04;;;;;;;6.57;1.90;;;;;;;26.66;49.06;99958.41;5070052;28;20040;-78
2021/07/30 09:50:50;;;;;;;6.78;1.88;;;;;;;26.87;49.30;99966.81;5085663;28;20044;-77
2021/07/30 09:53:36;;;;;;;7.50;1.90;;;;;;;27.02;49.30;99969.56;5099485;28;20151;-78
2021/07/30 09:56:23;;;;;;;6.25;1.70;;;;;;;27.14;48.12;99969.06;5086262;28;20043;-78
2021/07/30 09:59:08;;;;;;;8.02;1.90;;;;;;;27.17;47.44;99974.75;5085382;28;20399;-78
2021/07/30 10:01:54;;;;;;;8.68;1.75;;;;;;;27.18;46.71;99989.81;5094577;28;20090;-78
2021/07/30 10:04:50;;;;;;;9.98;2.13;;;;;;;27.23;47.40;99995.06;5099585;28;20122;-78
2021/07/30 10:07:37;;;;;;;7.13;1.88;;;;;;;27.11;47.29;99989.84;5085953;28;20057;-78
2021/07/30 10:10:25;;;;;;;8.25;1.67;;;;;;;26.72;46.31;100002.34;5098738;28;20031;-78
2021/07/30 10:13:14;;;;;;;10.88;1.88;;;;;;;26.70;47.83;100002.75;5058163;28;20105;-78
2021/07/30 10:16:00;;;;;;;7.78;1.75;;;;;;;26.66;48.51;99995.44;5078203;28;20042;-78
2021/07/30 10:18:46;;;;;;;5.47;1.50;;;;;;;26.54;48.95;100004.47;5087624;28;20440;-79
2021/07/30 10:21:34;;;;;;;5.45;1.35;;;;;;;26.59;47.78;100013.41;5085851;28;20503;-78
2021/07/30 10:24:20;;;;;;;3.88;1.10;;;;;;;26.36;48.36;100016.75;5069440;28;20027;-77
2021/07/30 10:27:06;;;;;;;6.90;1.85;;;;;;;26.36;48.16;100008.22;5066009;27;20400;-78
2021/07/30 10:30:06;;;;;;;6.57;1.13;;;;;;;26.09;48.61;100022.13;5073660;28;20110;-78
2021/07/30 10:32:59;;;;;;;4.43;1.30;;;;;;;26.01;48.60;100015.66;5111865;27;20032;-77
2021/07/30 10:35:45;;;;;;;7.43;1.60;;;;;;;25.84;49.49;100019.38;5085242;27;20031;-78
2021/07/30 10:38:31;;;;;;;5.78;1.55;;;;;;;25.90;49.63;100014.06;5070315;28;20065;-78
2021/07/30 10:41:19;;;;;;;7.68;1.95;;;;;;;25.80;50.69;100004.31;5083427;28;20514;-78
2021/07/30 10:44:06;;;;;;;6.10;1.58;;;;;;;25.83;50.75;99992.97;5092043;28;20042;-78
2021/07/30 10:47:18;;;;;;;5.60;1.70;;;;;;;25.95;51.32;99999.44;5082995;28;20039;-78
2021/07/30 10:50:04;;;;;;;6.97;1.73;;;;;;;26.01;50.58;100007.13;5098450;28;20039;-78
2021/07/30 10:52:49;;;;;;;5.95;1.88;;;;;;;26.09;49.80;100002.22;5095405;28;20495;-78
2021/07/30 10:55:41;;;;;;;7.35;1.70;;;;;;;26.11;49.64;99996.94;5083602;28;20031;-78
2021/07/30 10:58:39;;;;;;;7.25;2.15;;;;;;;26.17;49.62;100000.16;5068632;28;20027;-78
2021/07/30 11:01:28;;;;;;;6.90;1.63;;;;;;;26.24;49.55;100000.13;5089900;28;20395;-78
2021/07/30 11:04:14;;;;;;;8.18;1.70;;;;;;;26.27;49.85;99993.59;5106356;28;20031;-78
2021/07/30 11:07:00;;;;;;;6.70;1.80;;;;;;;26.24;49.76;99986.72;5079347;28;20040;-78
2021/07/30 11:09:46;;;;;;;7.05;2.08;;;;;;;26.27;49.61;99987.91;5083846;28;20125;-78
2021/07/30 11:12:31;;;;;;;7.80;1.70;;;;;;;26.39;49.37;99989.50;5079557;28;20031;-78
2021/07/30 11:15:17;;;;;;;6.18;1.65;;;;;;;26.30;49.12;99998.47;5097212;27;20027;-78
2021/07/30 11:18:03;;;;;;;6.10;1.90;;;;;;;26.30;48.71;99993.59;5086169;28;20023;-78
2021/07/30 11:20:56;;;;;;;6.00;1.50;;;;;;;26.33;48.89;99994.81;5066513;28;20023;-78
2021/07/30 11:23:45;;;;;;;6.90;1.55;;;;;;;26.33;48.96;100009.03;5080095;28;20507;-78
2021/07/30 11:26:33;;;;;;;4.82;1.83;;;;;;;26.29;48.56;100008.22;5082768;28;20039;-78
2021/07/30 11:29:20;;;;;;;5.05;1.40;;;;;;;26.37;48.59;100015.50;5078117;28;20064;-78
2021/07/30 11:32:07;;;;;;;5.90;1.42;;;;;;;26.37;48.20;100003.31;5063606;28;20035;-69
2021/07/30 11:34:54;;;;;;;5.32;1.50;;;;;;;26.37;48.89;100004.13;5101750;28;20039;-70
2021/07/30 11:37:40;;;;;;;8.18;1.65;;;;;;;26.39;49.72;100018.75;5094563;28;20060;-70
2021/07/30 11:40:26;;;;;;;4.63;1.15;;;;;;;26.45;48.50;100022.00;5081879;28;20039;-70
2021/07/30 11:43:12;;;;;;;2.75;1.10;;;;;;;26.50;48.13;100025.25;5077141;28;20087;-70
2021/07/30 11:46:11;;;;;;;2.83;0.95;;;;;;;26.48;47.93;100033.34;5081542;28;20035;-70
2021/07/30 11:48:58;;;;;;;3.83;0.90;;;;;;;26.53;48.72;100035.00;5086198;28;20028;-70
2021/07/30 11:51:43;;;;;;;2.10;0.47;;;;;;;26.54;49.06;100030.09;5074012;28;20031;-70
2021/07/30 11:54:29;;;;;;;4.57;0.90;;;;;;;26.65;49.19;100030.84;5080928;28;20040;-70
2021/07/30 11:57:28;;;;;;;4.93;1.15;;;;;;;26.64;49.85;100040.63;5072476;28;20038;-70
2021/07/30 12:00:27;;;;;;;3.78;0.80;;;;;;;26.73;48.59;100029.59;5086640;28;20036;-70
2021/07/30 12:03:19;;;;;;;4.55;0.70;;;;;;;26.89;48.59;100035.59;5064951;28;20063;-70
2021/07/30 12:06:05;;;;;;;4.07;0.90;;;;;;;27.07;48.07;100023.25;5081873;28;20065;-70
2021/07/30 12:08:51;;;;;;;3.78;1.10;;;;;;;27.19;47.74;100025.63;5096064;28;20036;-70
2021/07/30 12:11:37;;;;;;;3.25;0.90;;;;;;;27.34;46.75;100027.13;5091794;28;20131;-70
2021/07/30 12:14:25;;;;;;;1.98;0.85;;;;;;;27.53;46.49;100025.75;5076549;28;20036;-70
2021/07/30 12:17:11;;;;;;;2.10;0.80;;;;;;;27.72;45.79;100027.19;5078911;28;20032;-70
2021/07/30 12:19:58;;;;;;;2.83;0.77;;;;;;;27.83;45.56;100024.25;5079060;28;20032;-70
2021/07/30 12:22:45;;;;;;;3.65;1.20;;;;;;;27.94;45.68;100019.22;5101222;27;20039;-70
2021/07/30 12:25:53;;;;;;;2.60;0.80;;;;;;;27.95;44.62;100020.88;5071755;28;20124;-70
2021/07/30 12:28:39;;;;;;;1.98;1.02;;;;;;;28.26;45.46;100010.28;5079818;28;20028;-70
2021/07/30 12:31:25;;;;;;;2.45;0.98;;;;;;;28.42;45.11;100021.13;5086522;28;20040;-70
2021/07/30 12:34:15;;;;;;;4.57;1.10;;;;;;;28.48;45.21;100018.63;5084699;27;20177;-70
2021/07/30 12:37:09;;;;;;;4.35;1.05;;;;;;;28.52;44.60;100007.94;5088417;28;20058;-70
2021/07/30 12:39:57;;;;;;;5.43;1.30;;;;;;;28.69;45.30;100009.72;5076831;28;20027;-70
2021/07/30 12:42:42;;;;;;;5.32;1.15;;;;;;;28.73;44.06;100007.63;5086073;27;20028;-70
2021/07/30 12:45:38;;;;;;;4.93;1.25;;;;;;;28.80;45.31;100000.19;5078317;28;20579;-70
2021/07/30 12:48:23;;;;;;;3.95;1.00;;;;;;;28.91;45.05;99995.91;5101182;27;20031;-71
2021/07/30 12:51:22;;;;;;;4.28;1.25;;;;;;;29.06;45.21;100013.72;5076490;28;20043;-70
2021/07/30 12:54:09;;;;;;;3.20;1.08;;;;;;;29.15;44.92;100005.38;5084324;28;20496;-70
2021/07/30 12:57:03;;;;;;;5.65;1.30;;;;;;;29.22;44.54;100001.56;5086631;28;20035;-70
2021/07/30 12:59:52;;;;;;;3.70;1.27;;;;;;;29.31;44.52;100013.28;5080607;28;20042;-70
2021/07/30 13:02:41;;;;;;;5.38;1.27;;;;;;;29.33;44.74;100015.69;5117237;27;20051;-71
2021/07/30 13:05:28;;;;;;;3.90;1.30;;;;;;;29.35;44.19;100010.38;5070951;27;20039;-70